Portada
METAR-TAF:

METAR-TAF

Aeropuertos :

Aeropuerto Internacional Amata Kabua

Majuro, Islas Marshall

latitud: 07-04N, longitud: 171-17E, altitud: 2 m

Observación

El informe se hizo hace 3 horas y 2 minutos, a las 11:50 UTC
Viento 14 kt del este-noreste
Temperatura 28°C
Humedad 84%
Presión 1009 hPa
Visibilidad: 24.1 km
Escasas nubes a una altura de 1500 ft
Nubes dispersas a una altura de 5000 ft
Cielo nuboso a una altura de 30000 ft

METAR: PKMJ 181150Z 07014KT 15SM FEW015 SCT050 BKN300 28/25 A2981 RMK LAST

Hora: 02:52 (14:52 UTC)

Pronóstico

El informe se hizo hace 3 horas y 30 minutos, a las 11:22 UTC
Pronóstico válido del 18 a las 12 UTC al 19 a las 12 UTC
Viento 15 kt del este
Visibilidad: 10 km
Nubes dispersas a una altura de 1500 ft
Nubes dispersas a una altura de 5000 ft
chaparrones en las proximidades

TAF: PKMJ 181122Z 1812/1912 08015KT P6SM VCSH SCT015 SCT050

Observaciones y pronósticos meteorológicos de más de 4000 aeropuertos (mensajes METAR y TAF).

Los puntos amarillos y rojos representan las estaciones disponibles.

Ponga el ratón en el punto deseado para ver el nombre de la estación.

Haga clic para ver las observaciones y los pronósticos meteorológicos.

Para cambiar el mapa : haga clic en los botones verdes con una cruz de color negro para hacer un zoom, en el botón verde con un guión para alejar o en las flechas verdes para mapas adyacentes.


METAR-TAF: